createdAt,value
2023-12-29T00:01:32.867Z,99.90
2023-12-29T00:04:02.126Z,99.90
2023-12-29T00:06:30.357Z,99.90
2023-12-29T00:08:58.864Z,99.90
2023-12-29T00:11:27.503Z,99.90
2023-12-29T00:13:58.929Z,99.90
2023-12-29T00:16:30.097Z,99.90
2023-12-29T00:19:01.480Z,99.90
2023-12-29T00:21:33.519Z,99.90
2023-12-29T00:24:01.529Z,99.90
2023-12-29T00:26:30.361Z,99.90
2023-12-29T00:28:59.081Z,99.90
2023-12-29T00:31:27.245Z,99.90
2023-12-29T00:33:56.154Z,99.90
2023-12-29T00:36:24.764Z,99.90
2023-12-29T00:38:52.761Z,99.90
2023-12-29T00:41:24.795Z,99.90
2023-12-29T00:43:53.021Z,99.90
2023-12-29T00:46:24.201Z,99.90
2023-12-29T00:48:52.327Z,99.90
2023-12-29T00:51:20.203Z,99.90
2023-12-29T00:53:49.181Z,99.90
2023-12-29T00:56:17.251Z,99.90
2023-12-29T00:58:46.937Z,99.90
2023-12-29T01:01:15.537Z,99.90
2023-12-29T01:03:47.528Z,99.90
2023-12-29T01:06:15.594Z,99.90
2023-12-29T01:08:44.524Z,99.90
2023-12-29T01:11:15.507Z,99.90
2023-12-29T01:13:43.927Z,99.90
2023-12-29T01:16:22.631Z,99.90
2023-12-29T01:18:51.782Z,99.90
2023-12-29T01:21:20.401Z,99.90
2023-12-29T01:23:48.992Z,99.90
2023-12-29T01:26:20.117Z,99.90
2023-12-29T01:28:50.491Z,99.90
2023-12-29T01:31:21.646Z,99.90
2023-12-29T01:33:50.720Z,99.90
2023-12-29T01:36:25.027Z,99.90
2023-12-29T01:38:54.248Z,99.90
2023-12-29T01:41:22.740Z,99.90
2023-12-29T01:44:03.420Z,99.90
2023-12-29T01:46:34.840Z,99.90
2023-12-29T01:49:03.075Z,99.90
2023-12-29T01:51:32.418Z,99.90
2023-12-29T01:54:01.057Z,99.90
2023-12-29T01:56:29.834Z,99.90
2023-12-29T01:59:05.436Z,99.90
2023-12-29T02:01:42.796Z,99.90
2023-12-29T02:04:16.619Z,99.90
2023-12-29T02:06:45.501Z,99.90
2023-12-29T02:09:18.225Z,99.90
2023-12-29T02:11:49.671Z,99.90
2023-12-29T02:14:27.131Z,99.90
2023-12-29T02:17:23.771Z,99.90
2023-12-29T02:19:53.463Z,99.90
2023-12-29T02:22:25.241Z,99.90
2023-12-29T02:24:53.536Z,99.90
2023-12-29T02:27:44.014Z,99.90
2023-12-29T02:33:47.071Z,99.90
2023-12-29T02:36:17.439Z,99.90
2023-12-29T02:38:46.712Z,99.90
2023-12-29T02:41:14.451Z,99.90
2023-12-29T02:43:45.008Z,99.90
2023-12-29T02:46:13.074Z,99.90
2023-12-29T02:48:40.974Z,99.90
2023-12-29T02:51:09.643Z,99.90
2023-12-29T02:53:37.512Z,99.90
2023-12-29T02:56:05.936Z,99.90
2023-12-29T02:58:33.769Z,99.90
2023-12-29T03:01:01.778Z,99.90
2023-12-29T03:03:29.998Z,99.90
2023-12-29T03:05:57.942Z,99.90
2023-12-29T03:08:26.663Z,99.90
2023-12-29T03:10:54.364Z,99.90
2023-12-29T03:13:22.074Z,99.90
2023-12-29T03:15:49.739Z,99.90
2023-12-29T03:18:18.991Z,99.90
2023-12-29T03:20:46.717Z,99.90
2023-12-29T03:23:14.287Z,99.90
2023-12-29T03:25:42.712Z,99.90
2023-12-29T03:28:10.415Z,99.90
2023-12-29T03:30:38.631Z,99.90
2023-12-29T03:33:07.241Z,99.90
2023-12-29T03:35:34.888Z,99.90
2023-12-29T03:38:03.722Z,99.90
2023-12-29T03:40:32.264Z,99.90
2023-12-29T03:43:00.666Z,99.90
2023-12-29T03:45:30.723Z,99.90
2023-12-29T03:47:58.926Z,99.90
2023-12-29T03:50:27.752Z,99.90
2023-12-29T03:52:55.336Z,99.90
2023-12-29T03:55:23.141Z,99.90
2023-12-29T03:57:50.813Z,99.90
2023-12-29T04:00:18.671Z,99.90
2023-12-29T04:02:46.401Z,99.90
2023-12-29T04:05:14.524Z,99.90
2023-12-29T04:07:42.673Z,99.90
2023-12-29T04:10:10.659Z,99.90
2023-12-29T04:12:38.656Z,99.90
2023-12-29T04:15:06.996Z,99.90
2023-12-29T04:17:35.692Z,99.90
2023-12-29T04:20:03.865Z,99.90
2023-12-29T04:22:32.876Z,99.90
2023-12-29T04:25:00.747Z,99.90
2023-12-29T04:27:28.382Z,99.90
2023-12-29T04:29:55.931Z,99.90
2023-12-29T04:32:25.410Z,99.90
2023-12-29T04:34:53.279Z,99.90
2023-12-29T04:37:21.062Z,99.90
2023-12-29T04:39:48.910Z,99.90
2023-12-29T04:42:19.148Z,99.90
2023-12-29T04:44:47.480Z,99.90
2023-12-29T04:47:15.595Z,99.90
2023-12-29T04:49:43.386Z,99.90
2023-12-29T04:52:11.080Z,99.90
2023-12-29T04:54:39.000Z,99.90
2023-12-29T04:57:06.754Z,99.90
2023-12-29T04:59:35.240Z,99.90
2023-12-29T05:02:04.052Z,99.90
2023-12-29T05:04:32.742Z,99.90
2023-12-29T05:07:00.442Z,99.90
2023-12-29T05:09:28.226Z,99.90
2023-12-29T05:11:56.892Z,99.90
2023-12-29T05:14:24.958Z,99.90
2023-12-29T05:16:52.778Z,99.90
2023-12-29T05:19:20.618Z,99.90
2023-12-29T05:21:50.908Z,99.90
2023-12-29T05:24:18.829Z,99.90
2023-12-29T05:26:47.001Z,99.90
2023-12-29T05:29:14.665Z,99.90
2023-12-29T05:31:42.831Z,99.90
2023-12-29T05:34:10.660Z,99.90
2023-12-29T05:36:39.031Z,99.90
2023-12-29T05:39:08.072Z,99.90
2023-12-29T05:41:35.749Z,99.90
2023-12-29T05:44:03.827Z,99.90
2023-12-29T05:46:31.909Z,99.90
2023-12-29T05:49:01.297Z,99.90
2023-12-29T05:51:29.994Z,99.90
2023-12-29T05:53:58.425Z,99.90
2023-12-29T05:56:26.685Z,99.90
2023-12-29T05:58:55.234Z,99.90
2023-12-29T06:01:23.566Z,99.90
2023-12-29T06:03:51.570Z,99.90
2023-12-29T06:06:19.334Z,99.90
2023-12-29T06:08:47.880Z,99.90
2023-12-29T06:11:18.046Z,99.90
2023-12-29T06:13:46.650Z,99.90
2023-12-29T06:16:24.577Z,99.90
2023-12-29T06:18:53.397Z,99.90
2023-12-29T06:21:21.240Z,99.90
2023-12-29T06:23:50.448Z,99.90
2023-12-29T06:26:19.993Z,99.90
2023-12-29T06:28:48.469Z,99.90
2023-12-29T06:31:18.302Z,99.90
2023-12-29T06:33:46.466Z,99.90
2023-12-29T06:36:15.162Z,99.90
2023-12-29T06:38:43.193Z,99.90
2023-12-29T06:41:11.715Z,99.90
2023-12-29T06:43:39.554Z,99.90
2023-12-29T06:46:10.030Z,99.90
2023-12-29T06:48:38.015Z,99.90
2023-12-29T06:51:06.016Z,99.90
2023-12-29T06:53:33.847Z,99.90
2023-12-29T06:56:01.733Z,99.90
2023-12-29T06:58:30.449Z,99.90
2023-12-29T07:00:58.544Z,99.90
2023-12-29T07:03:26.648Z,99.90
2023-12-29T07:05:55.092Z,99.90
2023-12-29T07:08:23.413Z,99.90
2023-12-29T07:10:51.608Z,99.90
2023-12-29T07:13:20.494Z,99.90
2023-12-29T07:15:49.299Z,99.90
2023-12-29T07:18:17.143Z,99.90
2023-12-29T07:20:46.083Z,99.90
2023-12-29T07:23:13.935Z,99.90
2023-12-29T07:25:41.643Z,99.90
2023-12-29T07:28:09.315Z,99.90
2023-12-29T07:30:37.241Z,99.90
2023-12-29T07:33:05.215Z,99.90
2023-12-29T07:35:33.355Z,99.90
2023-12-29T07:38:01.161Z,99.90
2023-12-29T07:40:28.967Z,99.90
2023-12-29T07:42:56.541Z,99.90
2023-12-29T07:45:24.269Z,99.90
2023-12-29T07:47:53.081Z,99.90
2023-12-29T07:50:20.664Z,99.90
2023-12-29T07:52:48.336Z,99.90
2023-12-29T07:55:17.690Z,99.90
2023-12-29T07:57:45.624Z,99.90
2023-12-29T08:00:14.261Z,99.90
2023-12-29T08:02:42.062Z,99.90
2023-12-29T08:05:10.033Z,99.90
2023-12-29T08:07:41.302Z,99.90
2023-12-29T08:10:09.510Z,99.90
2023-12-29T08:12:37.433Z,99.90
2023-12-29T08:15:05.669Z,99.90
2023-12-29T08:17:33.725Z,99.90
2023-12-29T08:20:01.395Z,99.90
2023-12-29T08:22:34.414Z,99.90
2023-12-29T08:25:02.496Z,99.90
2023-12-29T08:27:30.435Z,99.90
2023-12-29T08:29:58.110Z,99.90
2023-12-29T08:32:25.922Z,99.90
2023-12-29T08:34:53.896Z,99.90
2023-12-29T08:37:21.973Z,99.90
2023-12-29T08:39:49.989Z,99.90
2023-12-29T08:42:19.038Z,99.90
2023-12-29T08:44:46.902Z,99.90
2023-12-29T08:47:14.745Z,99.90
2023-12-29T08:49:42.878Z,99.90
2023-12-29T08:52:11.002Z,99.90
2023-12-29T08:54:38.763Z,99.90
2023-12-29T08:57:08.518Z,99.90
2023-12-29T08:59:36.726Z,99.90
2023-12-29T09:02:05.146Z,99.90
2023-12-29T09:04:33.024Z,99.90
2023-12-29T09:07:00.812Z,99.90
2023-12-29T09:09:28.477Z,99.90
2023-12-29T09:11:57.215Z,99.90
2023-12-29T09:14:25.037Z,99.90
2023-12-29T09:16:52.747Z,99.90
2023-12-29T09:19:30.970Z,99.90
2023-12-29T09:22:04.619Z,99.90
2023-12-29T09:24:33.141Z,99.90
2023-12-29T09:27:00.841Z,99.90
2023-12-29T09:29:28.282Z,99.90
2023-12-29T09:31:57.330Z,99.90
2023-12-29T09:34:25.437Z,99.90
2023-12-29T09:36:53.276Z,99.90
2023-12-29T09:39:20.916Z,99.90
2023-12-29T09:41:59.072Z,99.90
2023-12-29T09:44:29.260Z,99.90
2023-12-29T09:47:02.275Z,99.90
2023-12-29T09:49:43.808Z,99.90
2023-12-29T09:52:15.318Z,99.90
2023-12-29T09:54:43.867Z,99.90
2023-12-29T09:57:12.011Z,99.90
2023-12-29T09:59:42.296Z,99.90
2023-12-29T10:02:17.258Z,99.90
2023-12-29T10:04:45.438Z,99.90
2023-12-29T10:07:21.613Z,99.90
2023-12-29T10:09:58.599Z,99.90
2023-12-29T10:12:28.525Z,99.90
2023-12-29T10:15:03.780Z,99.90
2023-12-29T10:17:36.778Z,99.90
2023-12-29T10:20:24.028Z,99.90
2023-12-29T10:22:55.091Z,99.90
2023-12-29T10:25:24.314Z,99.90
2023-12-29T10:27:53.058Z,99.90
2023-12-29T10:30:28.795Z,99.90
2023-12-29T10:33:04.883Z,99.90
2023-12-29T10:35:38.649Z,99.90
2023-12-29T10:38:14.187Z,99.90
2023-12-29T10:40:44.221Z,99.90
2023-12-29T10:43:13.084Z,99.90
2023-12-29T10:45:40.998Z,99.90
2023-12-29T10:48:09.887Z,99.90
2023-12-29T10:50:46.068Z,99.90
2023-12-29T10:53:18.783Z,99.90
2023-12-29T10:55:47.195Z,99.90
2023-12-29T10:58:21.058Z,99.90
2023-12-29T11:00:49.347Z,99.90
2023-12-29T11:03:19.070Z,99.90
2023-12-29T11:05:47.125Z,99.90
2023-12-29T11:08:24.718Z,99.90
2023-12-29T11:10:53.644Z,99.90
2023-12-29T11:13:22.777Z,99.90
2023-12-29T11:15:55.446Z,99.90
2023-12-29T11:18:24.468Z,99.90
2023-12-29T11:20:52.933Z,99.90
2023-12-29T11:23:20.877Z,99.90
2023-12-29T11:25:50.080Z,99.90
2023-12-29T11:28:19.043Z,99.90
2023-12-29T11:30:47.598Z,99.90
2023-12-29T11:33:53.497Z,99.90
2023-12-29T11:36:33.601Z,99.90
2023-12-29T11:39:38.177Z,99.90
2023-12-29T11:42:21.434Z,99.90
2023-12-29T11:44:50.044Z,99.90
2023-12-29T11:47:39.973Z,99.90
2023-12-29T11:50:08.468Z,99.90
2023-12-29T11:52:39.976Z,99.90
2023-12-29T11:55:11.995Z,99.90
2023-12-29T11:57:41.917Z,99.90
2023-12-29T12:00:10.299Z,99.90
2023-12-29T12:02:42.339Z,99.90
2023-12-29T12:05:11.684Z,99.90
2023-12-29T12:07:42.815Z,99.90
2023-12-29T12:10:22.495Z,99.90
2023-12-29T12:12:52.822Z,99.90
2023-12-29T12:15:29.874Z,99.90
2023-12-29T12:17:59.398Z,99.90
2023-12-29T12:20:29.608Z,99.90
2023-12-29T12:23:01.206Z,99.90
2023-12-29T12:25:30.993Z,99.90
2023-12-29T12:27:59.394Z,99.90
2023-12-29T12:30:28.315Z,99.90
2023-12-29T12:33:01.753Z,99.90
2023-12-29T12:35:30.531Z,99.90
2023-12-29T12:38:25.651Z,99.90
2023-12-29T12:40:53.814Z,99.90
2023-12-29T12:43:25.841Z,99.90
2023-12-29T12:46:02.236Z,99.90
2023-12-29T12:48:42.551Z,99.90
2023-12-29T12:51:12.022Z,99.90
2023-12-29T12:53:45.586Z,99.90
2023-12-29T12:56:14.313Z,99.90
2023-12-29T12:58:44.629Z,99.90
2023-12-29T13:01:13.595Z,99.90
2023-12-29T13:03:41.981Z,99.90
2023-12-29T13:06:10.199Z,99.90
2023-12-29T13:08:43.316Z,99.90
2023-12-29T13:11:13.958Z,99.30
2023-12-29T13:13:43.860Z,99.00
2023-12-29T13:16:12.391Z,98.70
2023-12-29T13:18:41.003Z,98.80
2023-12-29T13:21:10.875Z,98.70
2023-12-29T13:23:38.628Z,98.50
2023-12-29T13:26:10.229Z,98.70
2023-12-29T13:28:40.517Z,98.70
2023-12-29T13:31:13.807Z,98.80
2023-12-29T13:33:54.955Z,98.50
2023-12-29T13:36:31.902Z,98.30
2023-12-29T13:39:14.593Z,97.90
2023-12-29T13:41:44.141Z,97.50
2023-12-29T13:44:13.316Z,97.40
2023-12-29T13:46:41.417Z,97.20
2023-12-29T13:49:11.165Z,97.60
2023-12-29T13:51:39.325Z,97.10
2023-12-29T13:54:07.347Z,97.10
2023-12-29T13:56:35.057Z,97.10
2023-12-29T13:59:07.238Z,97.00
2023-12-29T14:01:39.444Z,96.70
2023-12-29T14:04:11.629Z,96.80
2023-12-29T14:06:44.209Z,96.90
2023-12-29T14:09:19.373Z,97.10
2023-12-29T14:11:48.516Z,97.10
2023-12-29T14:14:25.660Z,97.70
2023-12-29T14:16:56.606Z,97.30
2023-12-29T14:19:24.871Z,96.90
2023-12-29T14:21:55.579Z,97.10
2023-12-29T14:24:24.182Z,97.40
2023-12-29T14:26:54.989Z,97.50
2023-12-29T14:29:23.072Z,97.60
2023-12-29T14:31:52.842Z,97.50
2023-12-29T14:34:21.440Z,97.60
2023-12-29T14:36:50.443Z,97.70
2023-12-29T14:39:19.385Z,97.80
2023-12-29T14:41:47.331Z,97.80
2023-12-29T14:44:15.023Z,97.70
2023-12-29T14:46:42.965Z,97.80
2023-12-29T14:49:11.436Z,97.80
2023-12-29T14:51:40.353Z,97.80
2023-12-29T14:54:08.036Z,98.00
2023-12-29T14:56:35.812Z,98.50
2023-12-29T14:59:05.557Z,98.40
2023-12-29T15:01:34.833Z,98.20
2023-12-29T15:04:03.683Z,98.30
2023-12-29T15:06:31.480Z,98.40
2023-12-29T15:08:59.378Z,98.50
2023-12-29T15:11:26.961Z,98.50
2023-12-29T15:13:54.722Z,98.50
2023-12-29T15:16:22.740Z,98.60
2023-12-29T15:18:50.511Z,98.70
2023-12-29T15:21:18.823Z,98.70
2023-12-29T15:23:46.872Z,98.80
2023-12-29T15:26:16.526Z,98.90
2023-12-29T15:28:45.057Z,98.90
2023-12-29T15:31:14.701Z,98.90
2023-12-29T15:33:42.534Z,99.00
2023-12-29T15:36:21.537Z,99.00
2023-12-29T15:38:50.470Z,98.90
2023-12-29T15:41:18.210Z,99.00
2023-12-29T15:43:47.684Z,99.10
2023-12-29T15:46:23.469Z,99.10
2023-12-29T15:48:51.622Z,99.20
2023-12-29T15:51:19.552Z,99.20
2023-12-29T15:53:47.297Z,99.30
2023-12-29T15:56:21.526Z,99.20
2023-12-29T15:58:49.659Z,98.90
2023-12-29T16:01:27.542Z,98.50
2023-12-29T16:03:55.956Z,98.40
2023-12-29T16:06:25.324Z,98.30
2023-12-29T16:08:57.882Z,98.30
2023-12-29T16:11:29.160Z,98.30
2023-12-29T16:13:59.636Z,98.50
2023-12-29T16:16:33.765Z,98.70
2023-12-29T16:19:02.086Z,98.80
2023-12-29T16:21:37.380Z,98.80
2023-12-29T16:24:07.057Z,98.60
2023-12-29T16:26:39.073Z,98.60
2023-12-29T16:29:13.818Z,98.60
2023-12-29T16:31:41.450Z,98.40
2023-12-29T16:34:09.570Z,98.30
2023-12-29T16:36:38.617Z,98.30
2023-12-29T16:39:06.441Z,98.20
2023-12-29T16:41:35.653Z,98.20
2023-12-29T16:44:06.015Z,98.40
2023-12-29T16:46:34.160Z,98.50
2023-12-29T16:49:03.750Z,98.60
2023-12-29T16:51:31.811Z,98.60
2023-12-29T16:53:59.821Z,98.50
2023-12-29T16:56:28.646Z,98.50
2023-12-29T16:58:56.770Z,98.40
2023-12-29T17:01:24.564Z,98.40
2023-12-29T17:03:52.546Z,98.50
2023-12-29T17:06:20.253Z,98.60
2023-12-29T17:08:48.206Z,98.60
2023-12-29T17:11:15.785Z,98.60
2023-12-29T17:13:43.544Z,98.60
2023-12-29T17:16:13.059Z,98.60
2023-12-29T17:18:41.796Z,98.70
2023-12-29T17:21:12.624Z,98.60
2023-12-29T17:23:40.255Z,98.60
2023-12-29T17:26:12.820Z,98.60
2023-12-29T17:28:40.520Z,98.70
2023-12-29T17:31:09.042Z,98.60
2023-12-29T17:33:36.935Z,98.60
2023-12-29T17:36:09.008Z,98.70
2023-12-29T17:38:37.021Z,98.80
2023-12-29T17:41:07.778Z,98.80
2023-12-29T17:43:35.690Z,98.80
2023-12-29T17:46:07.074Z,98.70
2023-12-29T17:48:35.482Z,98.70
2023-12-29T17:51:05.157Z,98.70
2023-12-29T17:53:32.800Z,98.60
2023-12-29T17:56:03.588Z,98.50
2023-12-29T17:58:32.469Z,98.40
2023-12-29T18:01:01.594Z,98.50
2023-12-29T18:03:30.530Z,98.50
2023-12-29T18:06:00.541Z,98.40
2023-12-29T18:08:29.456Z,98.20
2023-12-29T18:10:57.320Z,98.30
2023-12-29T18:13:25.055Z,98.30
2023-12-29T18:15:53.506Z,98.20
2023-12-29T18:18:21.707Z,98.10
2023-12-29T18:20:52.280Z,98.10
2023-12-29T18:23:21.840Z,98.10
2023-12-29T18:25:50.156Z,98.30
2023-12-29T18:28:18.273Z,98.40
2023-12-29T18:30:46.310Z,98.40
2023-12-29T18:33:14.568Z,98.50
2023-12-29T18:35:42.486Z,98.40
2023-12-29T18:38:10.056Z,98.50
2023-12-29T18:40:37.836Z,98.50
2023-12-29T18:43:07.904Z,98.50
2023-12-29T18:45:35.899Z,98.60
2023-12-29T18:48:05.490Z,98.70
2023-12-29T18:50:33.386Z,98.80
2023-12-29T18:53:01.930Z,98.80
2023-12-29T18:55:30.517Z,98.80
2023-12-29T18:57:59.215Z,98.90
2023-12-29T19:00:27.246Z,98.90
2023-12-29T19:02:56.402Z,99.00
2023-12-29T19:05:24.571Z,99.10
2023-12-29T19:07:52.239Z,99.30
2023-12-29T19:10:19.982Z,99.30
2023-12-29T19:12:48.639Z,99.40
2023-12-29T19:15:16.433Z,99.40
2023-12-29T19:17:44.977Z,99.40
2023-12-29T19:20:13.224Z,99.50
2023-12-29T19:22:43.448Z,99.60
2023-12-29T19:25:11.984Z,99.60
2023-12-29T19:27:39.647Z,99.70
2023-12-29T19:30:08.417Z,99.70
2023-12-29T19:32:36.146Z,99.80
2023-12-29T19:35:05.389Z,99.90
2023-12-29T19:37:33.819Z,99.90
2023-12-29T19:40:01.789Z,99.90
2023-12-29T19:42:30.300Z,99.90
2023-12-29T19:45:06.271Z,99.90
2023-12-29T19:47:37.970Z,99.90
2023-12-29T19:50:10.439Z,99.90
2023-12-29T19:52:38.377Z,99.90
2023-12-29T19:55:07.754Z,99.90
2023-12-29T19:57:36.334Z,99.90
2023-12-29T20:00:04.697Z,99.90
2023-12-29T20:02:32.441Z,99.90
2023-12-29T20:05:01.764Z,99.90
2023-12-29T20:07:29.829Z,99.90
2023-12-29T20:09:58.060Z,99.90
2023-12-29T20:12:29.899Z,99.90
2023-12-29T20:14:57.589Z,99.90
2023-12-29T20:17:25.461Z,99.90
2023-12-29T20:19:53.519Z,99.90
2023-12-29T20:22:23.355Z,99.90
2023-12-29T20:24:52.435Z,99.90
2023-12-29T20:27:20.299Z,99.90
2023-12-29T20:29:48.313Z,99.90
2023-12-29T20:32:24.961Z,99.90
2023-12-29T20:34:52.831Z,99.90
2023-12-29T20:37:20.707Z,99.90
2023-12-29T20:39:49.548Z,99.90
2023-12-29T20:42:17.933Z,99.90
2023-12-29T20:44:46.093Z,99.90
2023-12-29T20:47:14.155Z,99.90
2023-12-29T20:49:41.907Z,99.90
2023-12-29T20:52:10.009Z,99.90
2023-12-29T20:54:40.611Z,99.90
2023-12-29T20:57:09.111Z,99.90
2023-12-29T20:59:39.503Z,99.90
2023-12-29T21:02:07.789Z,99.90
2023-12-29T21:04:37.777Z,99.90
2023-12-29T21:07:06.821Z,99.90
2023-12-29T21:09:35.087Z,99.90
2023-12-29T21:12:02.820Z,99.90
2023-12-29T21:14:33.404Z,99.90
2023-12-29T21:17:02.653Z,99.90
2023-12-29T21:19:30.708Z,99.90
2023-12-29T21:21:58.662Z,99.90
2023-12-29T21:24:27.928Z,99.90
2023-12-29T21:26:55.968Z,99.90
2023-12-29T21:29:24.146Z,99.90
2023-12-29T21:31:52.768Z,99.90
2023-12-29T21:34:21.386Z,99.90
2023-12-29T21:36:49.600Z,99.90
2023-12-29T21:39:19.598Z,99.90
2023-12-29T21:41:49.482Z,99.90
2023-12-29T21:44:18.540Z,99.90
2023-12-29T21:46:48.905Z,99.90
2023-12-29T21:49:18.606Z,99.90
2023-12-29T21:51:48.417Z,99.90
2023-12-29T21:54:16.711Z,99.90
2023-12-29T21:56:47.175Z,99.90
2023-12-29T21:59:15.445Z,99.90
2023-12-29T22:01:43.609Z,99.90
2023-12-29T22:04:12.544Z,99.90
2023-12-29T22:06:42.100Z,99.90
2023-12-29T22:09:11.195Z,99.90
2023-12-29T22:11:39.753Z,99.90
2023-12-29T22:14:08.900Z,99.90
2023-12-29T22:16:37.749Z,99.90
2023-12-29T22:19:06.984Z,99.90
2023-12-29T22:21:35.522Z,99.90
2023-12-29T22:24:03.183Z,99.90
2023-12-29T22:26:31.474Z,99.90
2023-12-29T22:28:59.294Z,99.90
2023-12-29T22:31:28.169Z,99.90
2023-12-29T22:33:56.459Z,99.90
2023-12-29T22:36:24.483Z,99.90
2023-12-29T22:38:54.435Z,99.90
2023-12-29T22:41:25.889Z,99.90
2023-12-29T22:43:54.953Z,99.90
2023-12-29T22:46:26.534Z,99.90
2023-12-29T22:48:55.490Z,99.90
2023-12-29T22:51:23.719Z,99.90
2023-12-29T22:53:51.733Z,99.90
2023-12-29T22:56:22.702Z,99.90
2023-12-29T22:58:51.112Z,99.90
2023-12-29T23:01:19.117Z,99.90
2023-12-29T23:03:47.850Z,99.90
2023-12-29T23:06:17.314Z,99.90
2023-12-29T23:08:45.134Z,99.90
2023-12-29T23:11:13.306Z,99.90
2023-12-29T23:13:41.143Z,99.90
2023-12-29T23:16:10.175Z,99.90
2023-12-29T23:18:39.150Z,99.90
2023-12-29T23:21:07.931Z,99.90
2023-12-29T23:23:35.524Z,99.90
2023-12-29T23:26:06.524Z,99.90
2023-12-29T23:28:34.315Z,99.90
2023-12-29T23:31:04.274Z,99.90
2023-12-29T23:33:32.108Z,99.90
2023-12-29T23:36:01.064Z,99.90
2023-12-29T23:38:30.481Z,99.90
2023-12-29T23:41:00.374Z,99.90
2023-12-29T23:43:29.052Z,99.90
2023-12-29T23:45:57.490Z,99.90
2023-12-29T23:48:25.819Z,99.90
2023-12-29T23:50:54.277Z,99.90
2023-12-29T23:53:22.745Z,99.90
2023-12-29T23:55:50.541Z,99.90
2023-12-29T23:58:19.374Z,99.90
